Time;durP1;ratioP1;P1;durP2;ratioP2;P2;SDS_P1;SDS_P2;PMS_P1;PMS_P2;Temp;Humidity;BMP_temperature;BMP_pressure;BME280_temperature;BME280_humidity;BME280_pressure;Samples;Min_cycle;Max_cycle;Signal;HPM_P1;HPM_P2
2022/12/21 00:00:22;;;;;;;53.53;29.52;;;;;;;1.09;58.56;95605.63;4175666;28;20132;-74
2022/12/21 00:02:24;;;;;;;47.05;26.13;;;;;;;1.02;59.04;95599.94;4175655;28;20458;-70
2022/12/21 00:04:26;;;;;;;45.00;26.48;;;;;;;0.92;58.94;95601.31;4175359;28;20053;-71
2022/12/21 00:06:30;;;;;;;48.63;25.75;;;;;;;0.81;59.29;95602.69;4174842;28;20072;-73
2022/12/21 00:08:41;;;;;;;44.55;25.40;;;;;;;0.67;59.55;95606.88;4167378;28;20057;-74
2022/12/21 00:10:43;;;;;;;45.40;25.92;;;;;;;0.29;60.00;95604.47;4174489;28;20540;-72
2022/12/21 00:12:44;;;;;;;45.28;25.90;;;;;;;-0.08;61.16;95603.66;4167757;28;20077;-72
2022/12/21 00:14:46;;;;;;;49.30;26.77;;;;;;;-0.35;62.75;95596.28;4175116;28;20148;-72
2022/12/21 00:16:47;;;;;;;50.42;27.35;;;;;;;-0.23;62.87;95606.03;4164175;28;20451;-72
2022/12/21 00:18:50;;;;;;;49.75;27.17;;;;;;;-0.10;62.76;95608.03;4176166;28;20199;-71
2022/12/21 00:21:06;;;;;;;47.65;26.02;;;;;;;0.14;62.35;95608.59;4178420;28;20307;-72
2022/12/21 00:23:07;;;;;;;46.15;26.50;;;;;;;0.34;61.37;95600.72;4148981;28;20201;-73
2022/12/21 00:25:09;;;;;;;46.97;26.63;;;;;;;0.52;60.56;95591.28;4148884;28;20049;-69
2022/12/21 00:27:12;;;;;;;45.40;27.00;;;;;;;0.66;60.34;95592.31;4160751;28;20057;-71
2022/12/21 00:29:13;;;;;;;56.22;26.52;;;;;;;0.77;59.68;95593.44;4178345;28;20115;-71
2022/12/21 00:31:18;;;;;;;43.88;23.77;;;;;;;0.88;59.53;95595.47;4166594;28;20053;-71
2022/12/21 00:33:20;;;;;;;45.03;24.42;;;;;;;0.89;59.22;95594.56;4160267;28;20057;-70
2022/12/21 00:35:21;;;;;;;48.15;24.95;;;;;;;0.90;59.47;95583.31;4177630;28;20049;-70
2022/12/21 00:37:23;;;;;;;42.10;24.92;;;;;;;0.90;59.10;95590.25;4167061;28;20148;-71
2022/12/21 00:39:25;;;;;;;41.90;24.23;;;;;;;0.85;59.05;95579.34;4165370;28;20045;-70
2022/12/21 00:41:27;;;;;;;41.90;24.88;;;;;;;0.87;59.14;95582.69;4177803;28;20144;-71
2022/12/21 00:43:33;;;;;;;40.40;24.33;;;;;;;0.89;59.27;95581.69;4178374;28;20144;-71
2022/12/21 00:45:34;;;;;;;44.95;25.00;;;;;;;0.91;59.14;95579.84;4177584;28;20152;-71
2022/12/21 00:47:36;;;;;;;40.55;24.58;;;;;;;0.87;59.52;95573.19;4170755;28;20220;-70
2022/12/21 00:49:38;;;;;;;40.05;24.80;;;;;;;0.92;60.22;95581.50;4161523;28;20057;-72
2022/12/21 00:51:39;;;;;;;43.28;25.00;;;;;;;1.06;59.97;95567.91;4160894;28;20057;-71
2022/12/21 00:53:41;;;;;;;40.65;24.35;;;;;;;1.08;59.62;95560.91;4161592;28;20124;-72
2022/12/21 00:55:56;;;;;;;42.72;24.38;;;;;;;1.07;59.11;95564.41;4163684;28;20322;-71
2022/12/21 00:57:59;;;;;;;42.63;24.48;;;;;;;1.05;59.04;95558.47;4156462;28;20219;-71
2022/12/21 01:00:03;;;;;;;41.55;24.00;;;;;;;1.01;58.75;95557.84;4161842;28;20077;-70
2022/12/21 01:02:05;;;;;;;42.92;24.40;;;;;;;0.96;59.20;95546.06;4169079;28;20056;-72
2022/12/21 01:04:08;;;;;;;41.38;23.90;;;;;;;0.95;59.71;95547.00;4177673;28;20106;-69
2022/12/21 01:06:15;;;;;;;45.55;23.17;;;;;;;0.99;59.48;95544.19;4176701;28;20076;-71
2022/12/21 01:08:19;;;;;;;44.63;25.38;;;;;;;1.01;59.40;95544.94;4171585;28;20519;-71
2022/12/21 01:10:21;;;;;;;46.03;25.15;;;;;;;0.94;59.62;95542.75;4174096;28;20049;-71
2022/12/21 01:12:22;;;;;;;42.58;25.23;;;;;;;0.91;58.81;95553.22;4161197;28;20057;-70
2022/12/21 01:14:26;;;;;;;47.08;25.98;;;;;;;0.81;59.02;95555.44;4170123;28;20320;-72
2022/12/21 01:16:30;;;;;;;41.30;23.58;;;;;;;0.53;59.14;95556.00;4177318;28;20110;-69
2022/12/21 01:18:32;;;;;;;39.00;22.52;;;;;;;-0.02;60.36;95557.81;4159061;28;20065;-70
2022/12/21 01:20:39;;;;;;;37.92;22.75;;;;;;;-0.66;62.63;95561.66;4176731;28;20041;-70
2022/12/21 01:22:41;;;;;;;38.90;21.88;;;;;;;-0.92;63.28;95560.28;4159974;28;20112;-68
2022/12/21 01:24:43;;;;;;;40.00;22.90;;;;;;;-1.00;64.11;95561.53;4174670;28;20048;-69
2022/12/21 01:26:45;;;;;;;40.58;24.90;;;;;;;-0.85;64.61;95556.50;4177382;28;20088;-70
2022/12/21 01:28:49;;;;;;;;;;;;;;;-0.53;64.10;95556.78;4177473;28;20350;-72
2022/12/21 01:30:51;;;;;;;44.38;25.05;;;;;;;-0.24;63.33;95552.00;4158215;28;20403;-70
2022/12/21 01:32:53;;;;;;;40.35;24.73;;;;;;;-0.06;62.56;95546.00;4173731;28;20087;-71
2022/12/21 01:34:56;;;;;;;41.55;24.08;;;;;;;0.05;62.35;95545.47;4164244;28;20053;-68
2022/12/21 01:36:58;;;;;;;44.83;25.02;;;;;;;0.17;61.42;95541.44;4168325;28;20404;-72
2022/12/21 01:39:00;;;;;;;42.55;23.83;;;;;;;0.21;61.70;95540.41;4155785;28;20152;-71
2022/12/21 01:41:02;;;;;;;45.03;24.25;;;;;;;0.31;60.93;95543.38;4176904;28;20057;-70
2022/12/21 01:43:39;;;;;;;42.10;24.63;;;;;;;0.29;61.07;95543.44;4160505;28;20413;-70
2022/12/21 01:45:42;;;;;;;40.03;25.48;;;;;;;0.39;60.94;95530.94;4118479;28;20099;-71
2022/12/21 01:48:05;;;;;;;35.22;22.67;;;;;;;0.51;60.79;95537.19;4155718;28;20053;-69
2022/12/21 01:50:22;;;;;;;39.58;23.40;;;;;;;0.62;60.16;95516.84;4142943;28;20082;-71
2022/12/21 01:52:24;;;;;;;38.45;22.40;;;;;;;0.68;60.21;95521.69;4158331;28;20540;-72
2022/12/21 01:54:30;;;;;;;37.42;21.58;;;;;;;0.77;59.68;95515.22;4163192;28;20077;-71
2022/12/21 01:56:34;;;;;;;37.22;22.00;;;;;;;0.80;60.12;95515.09;4171701;28;20414;-71
2022/12/21 01:58:38;;;;;;;37.08;21.17;;;;;;;0.84;59.93;95511.44;4148581;28;20115;-71
2022/12/21 02:00:40;;;;;;;38.88;21.45;;;;;;;0.88;60.16;95512.09;4168912;28;20489;-72
2022/12/21 02:02:49;;;;;;;36.67;22.10;;;;;;;0.89;59.90;95509.44;4160544;28;20045;-70
2022/12/21 02:04:52;;;;;;;38.08;21.45;;;;;;;0.90;59.49;95510.28;4160122;28;20085;-71
2022/12/21 02:06:58;;;;;;;39.75;22.42;;;;;;;0.87;59.94;95513.03;4157724;28;20132;-70
2022/12/21 02:09:01;;;;;;;40.33;20.75;;;;;;;0.76;59.99;95509.25;4176172;28;20145;-70
2022/12/21 02:11:03;;;;;;;40.42;21.45;;;;;;;0.77;60.41;95508.31;4158653;28;20049;-71
2022/12/21 02:13:09;;;;;;;38.10;21.63;;;;;;;0.77;60.05;95505.75;4176962;28;20279;-70
2022/12/21 02:15:11;;;;;;;38.40;21.77;;;;;;;0.84;60.23;95508.88;4158571;28;20179;-71
2022/12/21 02:17:33;;;;;;;34.08;21.38;;;;;;;0.91;59.47;95507.63;4175192;28;20418;-69
2022/12/21 02:20:05;;;;;;;37.17;21.63;;;;;;;0.94;59.16;95506.63;4176311;28;20478;-70
2022/12/21 02:22:16;;;;;;;34.85;20.95;;;;;;;0.94;59.72;95501.47;4173120;28;20060;-71
2022/12/21 02:24:39;;;;;;;38.47;20.20;;;;;;;0.95;59.36;95508.31;4175142;28;20099;-70
2022/12/21 02:27:13;;;;;;;32.70;19.48;;;;;;;0.95;58.83;95498.81;4167304;28;20119;-70
2022/12/21 02:29:50;;;;;;;42.55;21.55;;;;;;;0.88;59.33;95501.78;4076726;29;20460;-71
2022/12/21 02:32:00;;;;;;;34.88;20.48;;;;;;;0.77;60.17;95495.44;4048207;29;20068;-71
2022/12/21 02:34:05;;;;;;;35.60;20.73;;;;;;;0.74;59.84;95503.34;4000305;29;20723;-70
2022/12/21 02:36:18;;;;;;;34.47;19.45;;;;;;;0.68;59.75;95495.09;4044306;29;20147;-73
2022/12/21 02:38:43;;;;;;;35.33;21.52;;;;;;;0.59;59.70;95498.97;4045698;29;20100;-70
2022/12/21 02:40:59;;;;;;;;;;;;;;;0.54;59.87;95500.97;4029918;29;20113;-71
2022/12/21 02:45:38;;;;;;;38.13;21.90;;;;;;;0.35;60.33;95499.31;4018871;29;20106;-72
2022/12/21 02:47:49;;;;;;;32.67;20.10;;;;;;;0.29;60.85;95501.38;4020310;29;20056;-71
2022/12/21 02:50:05;;;;;;;40.08;21.85;;;;;;;0.26;61.19;95494.63;4014656;29;20089;-71
2022/12/21 02:52:12;;;;;;;38.05;20.85;;;;;;;0.33;60.95;95495.97;4040912;29;20149;-72
2022/12/21 02:54:16;;;;;;;36.95;20.80;;;;;;;0.44;60.71;95489.44;4028601;29;20098;-72
2022/12/21 02:56:19;;;;;;;36.58;21.38;;;;;;;0.51;61.33;95488.22;4020256;29;20090;-72
2022/12/21 02:58:22;;;;;;;35.17;22.27;;;;;;;0.56;61.01;95491.38;4029139;29;20057;-72
2022/12/21 03:00:25;;;;;;;30.63;20.27;;;;;;;0.62;60.77;95488.50;4029646;29;20057;-71
2022/12/21 03:02:45;;;;;;;36.45;22.15;;;;;;;0.66;60.97;95489.19;4030353;29;20061;-70
2022/12/21 03:05:12;;;;;;;36.03;21.67;;;;;;;0.72;60.68;95487.09;4041828;29;20465;-70
2022/12/21 03:07:40;;;;;;;36.92;21.17;;;;;;;0.72;60.50;95481.13;4061725;29;20150;-71
2022/12/21 03:10:05;;;;;;;31.15;20.25;;;;;;;0.61;61.02;95479.94;4101788;28;20059;-72
2022/12/21 03:12:39;;;;;;;34.88;22.70;;;;;;;0.64;60.84;95478.94;4100729;28;20609;-71
2022/12/21 03:14:52;;;;;;;36.05;21.25;;;;;;;0.68;60.62;95474.47;4123342;28;20473;-71
2022/12/21 03:17:02;;;;;;;33.30;21.20;;;;;;;0.66;60.99;95476.28;4124402;28;20082;-71
2022/12/21 03:19:11;;;;;;;37.88;21.60;;;;;;;0.70;60.98;95472.63;4117863;28;20066;-70
2022/12/21 03:21:14;;;;;;;37.47;21.27;;;;;;;0.68;60.64;95469.31;4107641;28;20524;-72
2022/12/21 03:23:35;;;;;;;36.03;20.17;;;;;;;0.67;61.14;95470.19;4108325;28;20330;-71
2022/12/21 03:25:40;;;;;;;35.28;20.58;;;;;;;0.74;61.38;95472.38;4120263;28;20350;-69
2022/12/21 03:27:45;;;;;;;32.70;20.10;;;;;;;0.72;61.16;95461.31;4112506;28;20471;-70
2022/12/21 03:29:50;;;;;;;31.30;19.63;;;;;;;0.63;61.08;95459.22;4108297;28;20112;-72
2022/12/21 03:31:56;;;;;;;31.20;19.95;;;;;;;0.64;61.58;95460.06;4095379;28;20089;-70
2022/12/21 03:34:05;;;;;;;32.28;19.15;;;;;;;0.67;61.19;95449.56;4113287;28;20059;-72
2022/12/21 03:36:19;;;;;;;32.05;19.13;;;;;;;0.67;61.10;95440.09;4106974;28;20089;-70
2022/12/21 03:38:31;;;;;;;31.87;17.97;;;;;;;0.65;61.40;95443.69;4108358;28;20384;-69
2022/12/21 03:40:34;;;;;;;32.38;18.35;;;;;;;0.66;60.70;95446.16;4108035;28;20339;-70
2022/12/21 03:42:40;;;;;;;28.83;18.35;;;;;;;0.64;61.11;95442.84;4107884;28;20058;-70
2022/12/21 03:44:50;;;;;;;31.30;18.45;;;;;;;0.72;60.48;95443.25;4107991;28;20054;-69
2022/12/21 03:46:55;;;;;;;31.50;20.58;;;;;;;0.74;60.67;95438.84;4116185;28;20529;-71
2022/12/21 03:49:02;;;;;;;35.42;21.33;;;;;;;0.73;60.17;95431.19;4107962;28;20055;-70
2022/12/21 03:51:08;;;;;;;31.00;18.50;;;;;;;0.75;60.43;95435.38;4139045;28;20053;-69
2022/12/21 03:53:35;;;;;;;35.53;19.83;;;;;;;0.72;60.99;95434.69;4140205;28;20443;-71
2022/12/21 03:55:39;;;;;;;32.42;20.20;;;;;;;0.76;61.04;95428.47;4143238;28;20125;-71
2022/12/21 03:57:43;;;;;;;32.25;19.80;;;;;;;0.79;60.73;95431.69;4127841;28;20140;-69
2022/12/21 03:59:52;;;;;;;32.60;19.07;;;;;;;0.80;60.73;95428.22;4141205;28;20827;-70
2022/12/21 04:02:31;;;;;;;33.35;19.67;;;;;;;0.80;61.27;95412.75;4147823;28;20433;-70
2022/12/21 04:05:06;;;;;;;30.85;18.95;;;;;;;0.71;61.30;95433.88;4162833;28;20077;-70
2022/12/21 04:07:09;;;;;;;40.50;21.85;;;;;;;0.39;61.28;95428.66;4152102;28;20547;-69
2022/12/21 04:09:11;;;;;;;44.10;24.17;;;;;;;0.46;61.80;95428.34;4144654;28;20058;-69
2022/12/21 04:13:38;;;;;;;45.53;23.17;;;;;;;0.49;61.92;95423.00;4142423;28;20457;-70
2022/12/21 04:18:00;;;;;;;42.45;24.02;;;;;;;0.56;61.45;95414.88;4145992;28;20057;-69
2022/12/21 04:20:03;;;;;;;36.72;22.45;;;;;;;0.57;62.02;95415.72;4156190;28;20390;-69
2022/12/21 04:22:05;;;;;;;42.35;22.85;;;;;;;0.60;61.78;95421.56;4170811;28;20053;-70
2022/12/21 04:28:49;;;;;;;35.08;22.15;;;;;;;0.10;63.26;95411.28;4164557;28;20064;-70
2022/12/21 04:30:52;;;;;;;38.10;22.80;;;;;;;-0.32;63.18;95410.78;4157971;28;20497;-70
2022/12/21 04:32:54;;;;;;;37.92;23.83;;;;;;;-0.84;65.00;95413.28;4172361;28;20065;-72
2022/12/21 04:34:56;;;;;;;36.65;22.25;;;;;;;-1.29;66.49;95407.66;4172116;28;20532;-73
2022/12/21 04:39:18;;;;;;;40.78;25.83;;;;;;;-1.65;68.25;95416.09;4163424;28;20134;-70
2022/12/21 04:41:21;;;;;;;45.63;25.48;;;;;;;-1.51;68.63;95414.66;4167385;28;20118;-70
2022/12/21 04:43:23;;;;;;;43.55;25.45;;;;;;;-1.35;68.00;95407.09;4169193;28;20099;-69
2022/12/21 04:45:25;;;;;;;39.35;23.27;;;;;;;-1.25;67.62;95406.63;4175841;28;20475;-70
2022/12/21 04:47:26;;;;;;;44.55;25.85;;;;;;;-1.03;67.22;95405.63;4163062;28;20083;-70
2022/12/21 04:49:28;;;;;;;40.42;23.58;;;;;;;-0.78;66.38;95405.28;4162800;28;20153;-71
2022/12/21 04:51:38;;;;;;;41.92;24.23;;;;;;;-0.54;65.73;95410.97;4162437;28;20437;-70
2022/12/21 04:53:42;;;;;;;41.95;25.75;;;;;;;-0.55;64.49;95404.19;4175634;28;20061;-72
2022/12/21 04:55:45;;;;;;;41.10;25.38;;;;;;;-0.94;64.68;95406.94;4167896;28;20459;-70
2022/12/21 04:57:47;;;;;;;45.30;25.15;;;;;;;-1.45;66.44;95417.78;4169243;28;20045;-69
2022/12/21 04:59:48;;;;;;;41.05;24.77;;;;;;;-1.63;67.18;95410.91;4168030;28;20059;-70
2022/12/21 05:01:50;;;;;;;37.38;24.13;;;;;;;-1.80;67.94;95411.63;4154863;28;20088;-70
2022/12/21 05:03:56;;;;;;;42.55;23.63;;;;;;;-1.87;68.52;95407.69;4154644;28;20450;-72
2022/12/21 05:05:58;;;;;;;41.78;23.70;;;;;;;-1.73;68.97;95401.94;4171073;28;20056;-71
2022/12/21 05:08:00;;;;;;;40.08;23.50;;;;;;;-1.62;67.91;95414.31;4177427;28;20063;-71
2022/12/21 05:10:03;;;;;;;43.97;23.27;;;;;;;-1.65;67.28;95413.53;4177393;28;20056;-72
2022/12/21 05:12:05;;;;;;;49.05;25.17;;;;;;;-1.78;67.83;95406.44;4170712;28;20064;-71
2022/12/21 05:14:06;;;;;;;45.17;24.58;;;;;;;-1.53;68.12;95413.88;4161967;28;20054;-74
2022/12/21 05:16:11;;;;;;;45.25;25.25;;;;;;;-1.22;67.16;95403.06;4157972;28;20057;-71
2022/12/21 05:18:13;;;;;;;48.72;25.38;;;;;;;-0.95;65.71;95406.06;4172977;28;20073;-72
2022/12/21 05:20:15;;;;;;;42.58;25.65;;;;;;;-0.72;65.33;95401.59;4169756;28;20134;-71
2022/12/21 05:22:18;;;;;;;40.45;25.65;;;;;;;-0.54;64.58;95394.72;4165780;28;20077;-71
2022/12/21 05:24:20;;;;;;;39.90;24.33;;;;;;;-0.39;63.90;95391.38;4161883;28;20324;-73
2022/12/21 05:26:22;;;;;;;52.55;27.50;;;;;;;-0.31;63.89;95396.16;4143738;28;20085;-72
2022/12/21 05:28:23;;;;;;;45.83;27.25;;;;;;;-0.30;63.19;95392.66;4166277;28;20674;-71
2022/12/21 05:30:25;;;;;;;47.53;26.55;;;;;;;-0.35;63.34;95394.66;4161277;28;20617;-72
2022/12/21 05:32:28;;;;;;;57.15;29.15;;;;;;;-0.46;63.75;95395.16;4173603;28;20680;-71
2022/12/21 05:34:30;;;;;;;54.47;32.05;;;;;;;-0.51;64.59;95394.56;4162142;28;20112;-71
2022/12/21 05:36:31;;;;;;;50.72;30.38;;;;;;;-0.54;64.67;95403.25;4161393;28;20333;-71
2022/12/21 05:38:33;;;;;;;52.65;30.60;;;;;;;-0.48;64.25;95399.56;4171193;28;20118;-72
2022/12/21 05:40:37;;;;;;;;;;;;;;;-0.39;64.01;95391.38;4164324;28;20053;-72
2022/12/21 05:42:39;;;;;;;51.00;29.80;;;;;;;-0.28;63.79;95394.28;4173748;28;20338;-71
2022/12/21 05:44:41;;;;;;;46.83;27.27;;;;;;;-0.21;63.93;95390.47;4168729;28;20053;-73
2022/12/21 05:46:43;;;;;;;51.28;29.00;;;;;;;-0.09;63.62;95388.19;4177504;28;20067;-71
2022/12/21 05:48:44;;;;;;;45.47;28.20;;;;;;;0.03;62.77;95387.56;4177339;28;20132;-72
2022/12/21 05:50:46;;;;;;;47.55;28.70;;;;;;;0.07;62.83;95396.81;4177868;28;20107;-71
2022/12/21 05:52:48;;;;;;;48.78;27.70;;;;;;;0.12;62.21;95388.84;4178398;28;20060;-72
2022/12/21 05:54:50;;;;;;;46.92;28.23;;;;;;;0.14;62.13;95382.69;4166706;28;20067;-72
2022/12/21 05:56:52;;;;;;;53.25;27.00;;;;;;;0.19;62.44;95392.75;4164273;28;20072;-70
2022/12/21 05:58:54;;;;;;;58.55;28.42;;;;;;;0.24;62.32;95379.63;4160557;28;20054;-72
2022/12/21 06:01:03;;;;;;;53.30;27.92;;;;;;;0.31;62.36;95389.56;4157223;28;20115;-69
2022/12/21 06:03:05;;;;;;;48.47;26.33;;;;;;;0.34;61.91;95391.97;4169212;28;20065;-71
2022/12/21 06:05:07;;;;;;;52.25;27.38;;;;;;;0.35;62.04;95385.09;4177452;28;20150;-73
2022/12/21 06:07:09;;;;;;;47.15;26.27;;;;;;;0.34;61.86;95389.38;4178140;28;20107;-71
2022/12/21 06:09:11;;;;;;;47.63;27.48;;;;;;;0.35;61.78;95388.47;4159594;28;20061;-70
2022/12/21 06:11:15;;;;;;;48.17;27.77;;;;;;;0.38;62.06;95383.16;4158429;28;20142;-70
2022/12/21 06:13:17;;;;;;;47.60;29.52;;;;;;;0.45;62.17;95388.00;4177427;28;20053;-69
2022/12/21 06:15:19;;;;;;;45.10;28.98;;;;;;;0.52;62.62;95385.03;4177079;28;20060;-73
2022/12/21 06:17:22;;;;;;;54.28;30.27;;;;;;;0.58;62.59;95389.00;4176914;28;20111;-73
2022/12/21 06:19:23;;;;;;;53.90;30.70;;;;;;;0.58;62.18;95381.25;4176471;28;20134;-72
2022/12/21 06:21:25;;;;;;;52.92;29.42;;;;;;;0.55;62.66;95384.03;4176402;28;20364;-71
2022/12/21 06:23:28;;;;;;;48.70;26.95;;;;;;;0.58;62.25;95381.25;4174093;28;20045;-72
2022/12/21 06:25:30;;;;;;;53.83;27.63;;;;;;;0.61;62.32;95375.97;4176755;28;20057;-73
2022/12/21 06:27:32;;;;;;;47.20;27.48;;;;;;;0.61;62.77;95379.38;4177063;28;20055;-72
2022/12/21 06:29:34;;;;;;;49.67;26.08;;;;;;;0.67;62.27;95379.94;4157478;28;20123;-72
2022/12/21 06:31:36;;;;;;;46.10;25.40;;;;;;;0.95;62.18;95382.72;4176901;28;20491;-70
2022/12/21 06:33:39;;;;;;;45.85;24.45;;;;;;;1.59;60.74;95367.94;4177278;28;20057;-71
2022/12/21 06:35:42;;;;;;;41.20;25.27;;;;;;;2.12;58.46;95377.81;4160687;28;20891;-73
2022/12/21 06:37:43;;;;;;;51.47;24.65;;;;;;;2.60;57.60;95371.44;4163599;28;20127;-70
2022/12/21 06:39:45;;;;;;;40.35;21.13;;;;;;;2.85;55.77;95375.09;4169439;28;20346;-69
2022/12/21 06:41:47;;;;;;;40.75;23.38;;;;;;;2.96;55.63;95377.84;4165588;28;20383;-70
2022/12/21 06:43:50;;;;;;;40.65;22.95;;;;;;;2.83;56.10;95374.34;4163332;28;20049;-69
2022/12/21 06:46:03;;;;;;;48.53;22.65;;;;;;;2.65;56.93;95374.56;4166541;28;20049;-70
2022/12/21 06:48:05;;;;;;;46.22;22.75;;;;;;;2.58;56.87;95377.63;4160594;28;20203;-72
2022/12/21 06:50:07;;;;;;;39.30;23.40;;;;;;;2.42;57.49;95386.31;4165490;28;20092;-71
2022/12/21 06:52:09;;;;;;;45.80;25.60;;;;;;;2.28;57.60;95386.34;4175655;28;20132;-70
2022/12/21 06:54:11;;;;;;;44.05;23.85;;;;;;;2.04;57.78;95392.03;4169435;28;20136;-73
2022/12/21 06:56:16;;;;;;;48.80;25.25;;;;;;;1.93;58.42;95384.06;4154297;28;20115;-72
2022/12/21 06:58:21;;;;;;;42.63;22.13;;;;;;;1.92;59.48;95387.56;4173780;28;20076;-71
2022/12/21 07:00:23;;;;;;;47.47;21.90;;;;;;;1.88;58.55;95385.25;4176186;28;20326;-72
2022/12/21 07:02:25;;;;;;;45.30;24.73;;;;;;;1.74;58.68;95393.78;4170060;28;20045;-71
2022/12/21 07:04:28;;;;;;;47.95;26.02;;;;;;;1.23;59.59;95388.94;4164459;28;20091;-71
2022/12/21 07:06:31;;;;;;;45.75;24.02;;;;;;;1.01;60.70;95394.41;4173360;28;20060;-71
2022/12/21 07:08:33;;;;;;;44.20;26.13;;;;;;;1.03;61.40;95400.34;4170949;28;20057;-70
2022/12/21 07:10:37;;;;;;;51.05;26.85;;;;;;;1.10;61.08;95408.56;4168061;28;20079;-72
2022/12/21 07:12:44;;;;;;;53.05;27.40;;;;;;;1.06;60.82;95402.75;4163639;28;20096;-73
2022/12/21 07:14:46;;;;;;;51.38;26.98;;;;;;;0.92;61.35;95411.25;4160114;28;20061;-71
2022/12/21 07:16:47;;;;;;;54.65;27.77;;;;;;;0.78;61.10;95413.75;4160144;28;20053;-72
2022/12/21 07:18:50;;;;;;;41.80;25.48;;;;;;;0.66;61.84;95412.63;4142238;28;20172;-71
2022/12/21 07:20:57;;;;;;;48.85;25.08;;;;;;;0.58;61.96;95412.22;4159332;28;20164;-72
2022/12/21 07:22:58;;;;;;;51.88;28.98;;;;;;;0.54;62.36;95411.56;4164283;28;20091;-72
2022/12/21 07:25:01;;;;;;;55.38;27.88;;;;;;;0.66;62.85;95416.97;4148649;28;20060;-71
2022/12/21 07:27:04;;;;;;;50.75;27.65;;;;;;;0.79;62.03;95408.47;4160226;28;20061;-71
2022/12/21 07:29:09;;;;;;;54.90;28.80;;;;;;;0.71;62.37;95397.78;4161154;28;20065;-71
2022/12/21 07:31:16;;;;;;;46.88;25.85;;;;;;;0.91;62.36;95398.44;4171325;28;20369;-72
2022/12/21 07:33:19;;;;;;;50.47;27.55;;;;;;;1.22;63.63;95397.56;4175821;28;20155;-73
2022/12/21 07:35:21;;;;;;;54.92;28.20;;;;;;;1.50;62.70;95390.88;4175074;28;20075;-72
2022/12/21 07:37:23;;;;;;;47.17;27.70;;;;;;;1.67;61.13;95389.91;4163371;28;20053;-73
2022/12/21 07:39:25;;;;;;;52.53;27.35;;;;;;;1.63;59.99;95394.41;4175188;28;20128;-70
2022/12/21 07:41:27;;;;;;;58.78;35.33;;;;;;;1.42;60.10;95392.16;4168000;28;20404;-73
2022/12/21 07:43:30;;;;;;;68.65;37.30;;;;;;;1.43;60.51;95383.47;4141679;28;20058;-71
2022/12/21 07:45:31;;;;;;;70.25;36.97;;;;;;;1.42;60.29;95386.16;4172193;28;20064;-72
2022/12/21 07:47:34;;;;;;;67.85;36.08;;;;;;;1.21;60.64;95383.84;4164435;28;20109;-71
2022/12/21 07:49:35;;;;;;;62.40;34.80;;;;;;;1.25;61.00;95391.41;4156041;28;20221;-70
2022/12/21 07:51:37;;;;;;;63.03;35.50;;;;;;;1.40;61.59;95382.84;4156348;28;20132;-73
2022/12/21 07:53:39;;;;;;;51.35;28.52;;;;;;;1.45;60.61;95383.38;4172599;28;20057;-72
2022/12/21 07:55:41;;;;;;;61.17;35.67;;;;;;;1.55;59.90;95388.84;4124022;28;20115;-72
2022/12/21 07:57:43;;;;;;;63.88;34.22;;;;;;;1.49;61.42;95395.22;4175076;28;20053;-72
2022/12/21 07:59:45;;;;;;;71.03;40.17;;;;;;;1.28;61.17;95396.41;4174736;28;20476;-70
2022/12/21 08:01:48;;;;;;;66.32;38.53;;;;;;;0.64;62.36;95401.56;4173591;28;20057;-76
2022/12/21 08:03:52;;;;;;;65.50;39.10;;;;;;;0.86;62.88;95390.09;4171064;28;20060;-83
2022/12/21 08:05:54;;;;;;;75.43;41.55;;;;;;;1.09;62.04;95399.19;4162034;28;20512;-73
2022/12/21 08:07:57;;;;;;;79.03;43.75;;;;;;;1.39;61.25;95388.91;4164852;28;20424;-74
2022/12/21 08:10:03;;;;;;;71.65;40.85;;;;;;;1.20;61.21;95392.50;4167427;28;20476;-76
2022/12/21 08:12:08;;;;;;;74.82;41.00;;;;;;;1.36;61.44;95381.34;4152814;28;20054;-70
2022/12/21 08:14:21;;;;;;;72.47;39.55;;;;;;;1.41;60.80;95376.72;4146762;28;20420;-88
2022/12/21 08:16:23;;;;;;;67.50;38.97;;;;;;;1.42;60.55;95381.00;4162527;28;20096;-83
2022/12/21 08:18:25;;;;;;;68.53;39.65;;;;;;;1.42;60.45;95371.50;4171344;28;20069;-73
2022/12/21 08:20:26;;;;;;;57.75;35.22;;;;;;;1.56;60.69;95362.94;4174665;28;20077;-74
2022/12/21 08:22:29;;;;;;;61.42;35.08;;;;;;;1.81;60.67;95356.38;4123974;28;20054;-76
2022/12/21 08:24:30;;;;;;;65.88;34.50;;;;;;;2.12;59.81;95360.53;4152945;28;20492;-75
2022/12/21 08:26:32;;;;;;;70.57;32.90;;;;;;;2.33;58.73;95357.59;4170757;28;20080;-72
2022/12/21 08:28:38;;;;;;;60.20;30.10;;;;;;;2.48;58.19;95353.25;4171738;28;20064;-74
2022/12/21 08:30:41;;;;;;;62.47;31.00;;;;;;;2.61;57.46;95354.16;4169624;28;20065;-74
2022/12/21 08:32:56;;;;;;;54.05;30.83;;;;;;;2.60;57.10;95352.50;4138522;28;20050;-88
2022/12/21 08:34:58;;;;;;;50.20;30.05;;;;;;;2.21;57.06;95354.00;4165760;28;20077;-74
2022/12/21 08:37:00;;;;;;;54.50;27.98;;;;;;;2.32;58.28;95348.19;4177916;28;20049;-74
2022/12/21 08:39:02;;;;;;;47.47;27.10;;;;;;;2.54;58.39;95337.34;4175395;28;20061;-72
2022/12/21 08:41:10;;;;;;;51.67;25.58;;;;;;;2.59;56.79;95336.16;4181207;28;20063;-74
2022/12/21 08:43:12;;;;;;;48.92;26.48;;;;;;;2.54;57.24;95337.34;4181464;28;20183;-69
2022/12/21 08:45:14;;;;;;;48.53;25.65;;;;;;;2.35;57.77;95341.06;4173200;28;20053;-74
2022/12/21 08:47:15;;;;;;;43.35;24.85;;;;;;;2.53;57.80;95333.09;4177739;28;20145;-73
2022/12/21 08:49:17;;;;;;;43.72;24.55;;;;;;;2.77;56.92;95328.97;4178448;28;20364;-73
2022/12/21 08:51:19;;;;;;;46.67;24.05;;;;;;;3.01;56.38;95323.19;4161740;28;20064;-74
2022/12/21 08:53:21;;;;;;;43.60;23.83;;;;;;;3.15;56.26;95315.38;4178877;28;20053;-73
2022/12/21 08:55:22;;;;;;;37.67;23.10;;;;;;;3.31;56.04;95320.38;4179170;28;20049;-73
2022/12/21 08:57:24;;;;;;;35.95;21.67;;;;;;;3.35;54.00;95319.25;4179521;28;20468;-76
2022/12/21 08:59:26;;;;;;;40.25;22.80;;;;;;;3.31;54.44;95310.03;4175866;28;20057;-72
2022/12/21 09:01:28;;;;;;;40.63;22.00;;;;;;;3.12;54.85;95317.31;4162533;28;20131;-76
2022/12/21 09:03:49;;;;;;;42.10;23.50;;;;;;;3.19;55.62;95311.66;4164368;28;20470;-73
2022/12/21 09:05:58;;;;;;;40.20;23.80;;;;;;;3.27;54.15;95306.00;4173666;28;20284;-73
2022/12/21 09:08:09;;;;;;;44.67;23.48;;;;;;;3.13;54.00;95306.06;4180472;28;20133;-75
2022/12/21 09:10:11;;;;;;;36.35;21.23;;;;;;;3.21;54.89;95301.22;4174714;28;20079;-74
2022/12/21 09:12:12;;;;;;;32.38;20.17;;;;;;;3.21;54.86;95304.63;4144528;28;20169;-73
2022/12/21 09:14:14;;;;;;;35.67;20.60;;;;;;;3.37;54.32;95295.84;4162487;28;20428;-74
2022/12/21 09:16:22;;;;;;;35.72;21.73;;;;;;;3.58;53.06;95291.84;4167798;28;20057;-73
2022/12/21 09:18:24;;;;;;;35.65;21.90;;;;;;;3.69;52.79;95297.13;4169539;28;20061;-73
2022/12/21 09:20:25;;;;;;;40.08;20.95;;;;;;;3.79;52.57;95289.59;4163187;28;20049;-72
2022/12/21 09:22:27;;;;;;;34.47;19.90;;;;;;;4.01;52.63;95285.53;4158243;28;20049;-73
2022/12/21 09:24:29;;;;;;;35.85;21.25;;;;;;;4.16;51.54;95268.94;4177739;28;20049;-72
2022/12/21 09:26:31;;;;;;;40.22;21.45;;;;;;;4.01;51.62;95267.41;4165161;28;20053;-72
2022/12/21 09:28:33;;;;;;;38.10;21.90;;;;;;;3.65;52.21;95262.00;4177584;28;20106;-73
2022/12/21 09:30:35;;;;;;;37.53;22.52;;;;;;;3.56;52.55;95260.03;4177979;28;20126;-73
2022/12/21 09:32:37;;;;;;;36.40;20.95;;;;;;;3.60;52.81;95252.91;4167043;28;20075;-75
2022/12/21 09:34:39;;;;;;;42.70;21.73;;;;;;;3.81;52.92;95245.44;4165321;28;20061;-71
2022/12/21 09:36:41;;;;;;;44.08;19.27;;;;;;;3.85;52.71;95249.44;4168887;28;20107;-75
2022/12/21 09:39:02;;;;;;;35.10;20.40;;;;;;;3.99;52.34;95249.34;4157718;28;20112;-73
2022/12/21 09:41:26;;;;;;;33.15;20.20;;;;;;;4.20;51.23;95236.66;4169349;28;20059;-77
2022/12/21 09:43:46;;;;;;;36.63;19.98;;;;;;;4.15;51.29;95238.75;4170907;28;20123;-73
2022/12/21 09:45:52;;;;;;;32.25;18.30;;;;;;;3.82;51.66;95241.91;4179047;28;20057;-75
2022/12/21 09:48:02;;;;;;;33.05;18.52;;;;;;;3.64;52.10;95241.41;4182020;28;20049;-72
2022/12/21 09:50:07;;;;;;;33.97;19.08;;;;;;;3.87;52.41;95239.81;4154978;28;20145;-70
2022/12/21 09:52:35;;;;;;;31.25;18.77;;;;;;;3.89;51.48;95231.03;4138997;28;20223;-73
2022/12/21 09:54:39;;;;;;;33.00;20.15;;;;;;;3.80;51.91;95236.00;4149918;28;20113;-72
2022/12/21 09:56:45;;;;;;;31.80;18.52;;;;;;;3.92;51.55;95235.16;4162534;28;20115;-74